Time;durP1;ratioP1;P1;durP2;ratioP2;P2;SDS_P1;SDS_P2;PMS_P1;PMS_P2;Temp;Humidity;BMP_temperature;BMP_pressure;BME280_temperature;BME280_humidity;BME280_pressure;Samples;Min_cycle;Max_cycle;Signal;HPM_P1;HPM_P2
2022/06/11 00:01:04;;;;;;;;;;;;;;;18.01;100.00;99054.16;3135840;28;20027;-66
2022/06/11 00:02:36;;;;;;;;;;;;;;;18.02;100.00;99063.75;3135780;28;20398;-66
2022/06/11 00:04:10;;;;;;;;;;;;;;;18.04;100.00;99061.78;3135634;28;19924;-66
2022/06/11 00:05:41;;;;;;;;;;;;;;;18.07;100.00;99058.88;3135755;28;20564;-66
2022/06/11 00:07:14;;;;;;;;;;;;;;;18.10;100.00;99063.88;3136082;28;19924;-66
2022/06/11 00:08:47;;;;;;;;;;;;;;;18.10;100.00;99062.09;3135827;28;19924;-66
2022/06/11 00:10:18;;;;;;;;;;;;;;;18.13;100.00;99060.97;3136082;28;20031;-66
2022/06/11 00:11:51;;;;;;;;;;;;;;;18.12;100.00;99059.31;3135675;28;19924;-66
2022/06/11 00:13:23;;;;;;;;;;;;;;;18.12;100.00;99059.31;3135428;28;20316;-66
2022/06/11 00:14:55;;;;;;;;;;;;;;;18.13;100.00;99053.06;3129341;28;20663;-66
2022/06/11 00:16:27;;;;;;;;;;;;;;;18.11;100.00;99049.75;3138193;28;19935;-66
2022/06/11 00:17:59;;;;;;;;;;;;;;;18.08;100.00;99042.13;3135541;28;20479;-66
2022/06/11 00:19:30;;;;;;;;;;;;;;;18.06;100.00;99042.25;3134960;28;19989;-66
2022/06/11 00:21:02;;;;;;;;;;;;;;;18.09;100.00;99043.78;3132408;28;19936;-66
2022/06/11 00:22:34;;;;;;;;;;;;;;;18.11;100.00;99042.69;3132609;28;20015;-66
2022/06/11 00:24:08;;;;;;;;;;;;;;;18.13;100.00;99034.63;3136916;28;19938;-67
2022/06/11 00:25:40;;;;;;;;;;;;;;;18.07;100.00;99030.75;3139280;28;19930;-66
2022/06/11 00:27:12;;;;;;;;;;;;;;;18.06;100.00;99034.34;3139878;28;19928;-67
2022/06/11 00:28:44;;;;;;;;;;;;;;;18.10;100.00;99037.53;3140224;28;19925;-66
2022/06/11 00:30:18;;;;;;;;;;;;;;;18.12;100.00;99040.88;3140468;28;20035;-67
2022/06/11 00:31:49;;;;;;;;;;;;;;;18.11;100.00;99029.50;3138761;28;19930;-67
2022/06/11 00:33:20;;;;;;;;;;;;;;;18.11;100.00;99033.94;3140327;28;20402;-67
2022/06/11 00:34:53;;;;;;;;;;;;;;;18.11;100.00;99033.94;3140496;28;19924;-67
2022/06/11 00:36:25;;;;;;;;;;;;;;;18.13;100.00;99029.34;3140304;28;19998;-67
2022/06/11 00:37:56;;;;;;;;;;;;;;;18.11;100.00;99031.31;3140398;28;19954;-67
2022/06/11 00:39:30;;;;;;;;;;;;;;;18.15;100.00;99030.06;3140029;28;20393;-66
2022/06/11 00:41:02;;;;;;;;;;;;;;;18.19;100.00;99031.47;3140179;28;20324;-66
2022/06/11 00:42:36;;;;;;;;;;;;;;;18.21;100.00;99026.88;3140117;28;20270;-66
2022/06/11 00:44:07;;;;;;;;;;;;;;;18.22;100.00;99017.16;3140451;28;19993;-66
2022/06/11 00:45:44;;;;;;;;;;;;;;;18.23;100.00;99027.59;3139844;28;19928;-66
2022/06/11 00:47:18;;;;;;;;;;;;;;;18.23;100.00;99027.59;3140080;28;19968;-66
2022/06/11 00:48:50;;;;;;;;;;;;;;;18.24;100.00;99029.22;3140091;28;19997;-66
2022/06/11 00:50:25;;;;;;;;;;;;;;;18.28;100.00;99035.06;3140598;28;19925;-65
2022/06/11 00:52:00;;;;;;;;;;;;;;;18.28;100.00;99028.00;3140066;28;20316;-65
2022/06/11 00:53:34;;;;;;;;;;;;;;;18.30;100.00;99023.41;3140319;28;19928;-65
2022/06/11 00:55:10;;;;;;;;;;;;;;;18.33;100.00;99036.31;3139998;28;19932;-66
2022/06/11 00:56:44;;;;;;;;;;;;;;;18.32;100.00;99037.28;3134324;28;19924;-66
2022/06/11 00:58:17;;;;;;;;;;;;;;;18.31;100.00;99038.28;3140103;28;20302;-66
2022/06/11 00:59:49;;;;;;;;;;;;;;;18.33;100.00;99038.94;3139919;28;19924;-66
2022/06/11 01:01:22;;;;;;;;;;;;;;;18.34;100.00;99043.28;3134464;28;20360;-65
2022/06/11 01:02:53;;;;;;;;;;;;;;;18.39;100.00;99034.94;3139934;28;19928;-66
2022/06/11 01:04:49;;;;;;;;;;;;;;;18.42;100.00;99045.19;3139904;28;19925;-66
2022/06/11 01:06:23;;;;;;;;;;;;;;;18.47;100.00;99036.91;3120765;28;19947;-66
2022/06/11 01:08:09;;;;;;;;;;;;;;;18.41;100.00;99033.00;3140095;28;19977;-65
2022/06/11 01:09:45;;;;;;;;;;;;;;;18.37;100.00;99040.34;3139757;28;19990;-66
2022/06/11 01:11:36;;;;;;;;;;;;;;;18.42;100.00;99042.56;3139958;28;19925;-66
2022/06/11 01:13:11;;;;;;;;;;;;;;;18.47;100.00;99039.53;3139920;28;20008;-67
2022/06/11 01:14:45;;;;;;;;;;;;;;;18.49;100.00;99041.06;3139718;28;20385;-66
2022/06/11 01:16:26;;;;;;;;;;;;;;;18.54;99.91;99040.63;3140640;28;20424;-66
2022/06/11 01:18:04;;;;;;;;;;;;;;;18.56;99.96;99033.44;3139760;28;19998;-66
2022/06/11 01:19:47;;;;;;;;;;;;;;;18.59;99.56;99038.41;3139817;28;19925;-66
2022/06/11 01:21:26;;;;;;;;;;;;;;;18.62;99.45;99040.78;3140220;28;19924;-66
2022/06/11 01:23:11;;;;;;;;;;;;;;;18.63;99.22;99045.94;3134425;28;20370;-66
2022/06/11 01:24:54;;;;;;;;;;;;;;;18.60;98.93;99042.72;3136809;28;19966;-66
2022/06/11 01:26:44;;;;;;;;;;;;;;;18.55;99.28;99044.97;3140068;28;19954;-66
2022/06/11 01:28:29;;;;;;;;;;;;;;;18.58;99.02;99042.03;3139255;28;20329;-67
2022/06/11 01:30:03;;;;;;;;;;;;;;;18.59;99.11;99030.50;3135232;28;19928;-67
2022/06/11 01:31:39;;;;;;;;;;;;;;;18.59;99.20;99033.16;3136036;28;19932;-67
2022/06/11 01:33:13;;;;;;;;;;;;;;;18.54;99.02;99038.81;3133719;28;19975;-67
2022/06/11 01:34:48;;;;;;;;;;;;;;;18.54;99.32;99040.63;3135703;28;20459;-67
2022/06/11 01:36:22;;;;;;;;;;;;;;;18.54;98.91;99032.72;3136220;28;19924;-65
2022/06/11 01:37:57;;;;;;;;;;;;;;;18.52;98.31;99038.16;3135880;28;20631;-66
2022/06/11 01:39:32;;;;;;;;;;;;;;;18.51;97.91;99035.63;3135097;28;19971;-67
2022/06/11 01:41:14;;;;;;;;;;;;;;;18.52;97.97;99037.31;3134949;28;19924;-66
2022/06/11 01:42:48;;;;;;;;;;;;;;;18.51;97.91;99038.28;3135950;28;19935;-66
2022/06/11 01:44:21;;;;;;;;;;;;;;;18.52;97.67;99037.31;3135195;28;19931;-67
2022/06/11 01:45:55;;;;;;;;;;;;;;;18.51;97.63;99046.19;3136402;28;19924;-66
2022/06/11 01:47:26;;;;;;;;;;;;;;;18.50;97.38;99044.53;3135634;28;20004;-66
2022/06/11 01:48:59;;;;;;;;;;;;;;;18.51;97.34;99046.19;3136150;28;20740;-65
2022/06/11 01:50:32;;;;;;;;;;;;;;;18.50;97.62;99049.81;3135166;28;19925;-65
2022/06/11 01:52:09;;;;;;;;;;;;;;;18.51;97.52;99044.38;3135682;28;20019;-64
2022/06/11 01:53:51;;;;;;;;;;;;;;;18.54;97.29;99048.53;3135597;28;19924;-65
2022/06/11 01:55:31;;;;;;;;;;;;;;;18.56;97.22;99033.44;3135530;28;20038;-67
2022/06/11 01:57:23;;;;;;;;;;;;;;;18.56;97.04;99036.88;3135553;28;19925;-66
2022/06/11 01:59:03;;;;;;;;;;;;;;;18.59;96.74;99038.41;3128790;28;20090;-66
2022/06/11 02:00:36;;;;;;;;;;;;;;;18.59;96.84;99031.34;3129639;28;19925;-66
2022/06/11 02:02:19;;;;;;;;;;;;;;;18.57;96.95;99029.81;3135877;28;19931;-66
2022/06/11 02:03:54;;;;;;;;;;;;;;;18.55;97.25;99034.41;3136435;28;19924;-67
2022/06/11 02:05:31;;;;;;;;;;;;;;;18.55;97.00;99040.50;3135938;28;19924;-68
2022/06/11 02:07:06;;;;;;;;;;;;;;;18.55;96.87;99039.69;3135867;28;19925;-66
2022/06/11 02:08:47;;;;;;;;;;;;;;;18.56;96.80;99041.34;3142046;28;19924;-66
2022/06/11 02:10:21;;;;;;;;;;;;;;;18.56;96.94;99046.59;3136041;28;19924;-66
2022/06/11 02:11:58;;;;;;;;;;;;;;;18.55;97.23;99043.16;3141283;28;19982;-66
2022/06/11 02:13:33;;;;;;;;;;;;;;;18.54;97.38;99045.91;3141955;28;19997;-66
2022/06/11 02:15:08;;;;;;;;;;;;;;;18.48;98.27;99036.75;3142095;28;19924;-67
2022/06/11 02:16:42;;;;;;;;;;;;;;;18.35;99.93;99044.94;3147387;28;20601;-67
2022/06/11 02:18:18;;;;;;;;;;;;;;;18.21;100.00;99029.50;3141467;28;19924;-66
2022/06/11 02:19:51;;;;;;;;;;;;;;;18.06;100.00;99025.59;3139219;28;19924;-66
2022/06/11 02:21:25;;;;;;;;;;;;;;;17.94;100.00;99025.72;3141846;28;19998;-66
2022/06/11 02:23:00;;;;;;;;;;;;;;;17.89;100.00;99025.28;3141573;28;19924;-66
2022/06/11 02:24:33;;;;;;;;;;;;;;;17.83;100.00;99027.63;3141899;28;20103;-66
2022/06/11 02:26:06;;;;;;;;;;;;;;;17.80;100.00;99027.88;3141722;28;20027;-66
2022/06/11 02:27:39;;;;;;;;;;;;;;;17.81;100.00;99033.03;3141872;28;19924;-65
2022/06/11 02:29:12;;;;;;;;;;;;;;;17.82;100.00;99037.31;3141804;28;19925;-66
2022/06/11 02:30:46;;;;;;;;;;;;;;;17.81;100.00;99043.56;3141479;28;20126;-66
2022/06/11 02:32:18;;;;;;;;;;;;;;;17.82;100.00;99060.19;3142102;28;19939;-66
2022/06/11 02:33:51;;;;;;;;;;;;;;;17.80;100.00;99056.88;3142058;28;19963;-65
2022/06/11 02:35:28;;;;;;;;;;;;;;;17.77;100.00;99060.56;3141840;28;20359;-66
2022/06/11 02:37:02;;;;;;;;;;;;;;;17.76;100.00;99061.53;3139840;28;20031;-66
2022/06/11 02:38:33;;;;;;;;;;;;;;;17.74;100.00;99055.56;3141377;28;19924;-66
2022/06/11 02:40:09;;;;;;;;;;;;;;;17.68;100.00;99056.91;3141557;28;20463;-67
2022/06/11 02:41:43;;;;;;;;;;;;;;;17.70;100.00;99052.38;3141760;28;19925;-67
2022/06/11 02:43:14;;;;;;;;;;;;;;;17.69;100.00;99052.50;3141260;28;20429;-66
2022/06/11 02:44:46;;;;;;;;;;;;;;;17.67;100.00;99047.38;3142095;28;19924;-66
2022/06/11 02:48:07;;;;;;;;;;;;;;;17.59;100.00;99051.63;3136620;28;19924;-66
2022/06/11 02:49:40;;;;;;;;;;;;;;;17.56;100.00;99052.72;3141747;28;19924;-66
2022/06/11 02:51:12;;;;;;;;;;;;;;;17.49;100.00;99043.69;3141559;28;20519;-66
2022/06/11 02:52:43;;;;;;;;;;;;;;;17.48;100.00;99056.03;3141621;28;19924;-65
2022/06/11 02:54:15;;;;;;;;;;;;;;;17.49;100.00;99062.13;3141329;28;19929;-66
2022/06/11 02:55:47;;;;;;;;;;;;;;;17.51;100.00;99062.81;3141516;28;19935;-65
2022/06/11 02:57:20;;;;;;;;;;;;;;;17.46;100.00;99060.56;3141681;28;19924;-66
2022/06/11 02:58:52;;;;;;;;;;;;;;;17.46;100.00;99065.00;3141555;28;20460;-67
2022/06/11 03:00:26;;;;;;;;;;;;;;;17.42;100.00;99064.44;3140477;28;19932;-66
2022/06/11 03:01:56;;;;;;;;;;;;;;;17.40;100.00;99055.00;3141710;28;19924;-66
2022/06/11 03:03:28;;;;;;;;;;;;;;;17.43;100.00;99057.38;3141166;28;19942;-66
2022/06/11 03:05:01;;;;;;;;;;;;;;;17.42;100.00;99053.06;3141365;28;19929;-67
2022/06/11 03:06:33;;;;;;;;;;;;;;;17.45;100.00;99058.06;3141261;28;19925;-66
2022/06/11 03:08:08;;;;;;;;;;;;;;;17.45;100.00;99058.06;3140965;28;20174;-66
2022/06/11 03:09:40;;;;;;;;;;;;;;;17.42;100.00;99046.03;3141581;28;19924;-66
2022/06/11 03:11:12;;;;;;;;;;;;;;;17.44;100.00;99049.34;3141348;28;19924;-66
2022/06/11 03:12:43;;;;;;;;;;;;;;;17.48;100.00;99048.13;3141096;28;19979;-66
2022/06/11 03:14:14;;;;;;;;;;;;;;;17.50;100.00;99051.44;3141525;28;20001;-66
2022/06/11 03:15:46;;;;;;;;;;;;;;;17.51;100.00;99053.13;3144079;28;19945;-66
2022/06/11 03:17:19;;;;;;;;;;;;;;;17.49;100.00;99051.59;3141160;28;19924;-66
2022/06/11 03:18:50;;;;;;;;;;;;;;;17.53;100.00;99045.09;3141464;28;19925;-67
2022/06/11 03:20:25;;;;;;;;;;;;;;;17.53;100.00;99050.34;3141502;28;19966;-66
2022/06/11 03:21:57;;;;;;;;;;;;;;;17.54;100.00;99053.81;3140960;28;19925;-66
2022/06/11 03:23:29;;;;;;;;;;;;;;;17.56;100.00;99051.88;3141299;28;19994;-67
2022/06/11 03:25:01;;;;;;;;;;;;;;;17.55;100.00;99052.88;3141000;28;20440;-66
2022/06/11 03:26:32;;;;;;;;;;;;;;;17.56;100.00;99060.63;3141230;28;19924;-67
2022/06/11 03:28:06;;;;;;;;;;;;;;;17.57;100.00;99051.78;3141263;28;19981;-67
2022/06/11 03:29:38;;;;;;;;;;;;;;;17.59;100.00;99059.53;3141017;28;20386;-66
2022/06/11 03:31:09;;;;;;;;;;;;;;;17.59;100.00;99051.63;3141185;28;19924;-66
2022/06/11 03:32:41;;;;;;;;;;;;;;;17.60;100.00;99054.13;3141142;28;19924;-66
2022/06/11 03:34:12;;;;;;;;;;;;;;;17.61;100.00;99058.44;3141086;28;19924;-67
2022/06/11 03:35:46;;;;;;;;;;;;;;;17.63;100.00;99053.00;3141130;28;19936;-67
2022/06/11 03:37:18;;;;;;;;;;;;;;;17.66;100.00;99053.59;3136611;28;20030;-67
2022/06/11 03:38:50;;;;;;;;;;;;;;;17.67;100.00;99055.25;3140380;28;19968;-67
2022/06/11 03:40:21;;;;;;;;;;;;;;;17.70;100.00;99054.16;3141258;28;19924;-67
2022/06/11 03:41:54;;;;;;;;;;;;;;;17.72;100.00;99054.88;3141228;28;19924;-67
2022/06/11 03:43:25;;;;;;;;;;;;;;;17.75;100.00;99054.63;3140897;28;19928;-66
2022/06/11 03:44:57;;;;;;;;;;;;;;;17.76;100.00;99061.53;3141034;28;19939;-67
2022/06/11 03:46:29;;;;;;;;;;;;;;;17.79;100.00;99061.31;3141067;28;19946;-67
2022/06/11 03:48:01;;;;;;;;;;;;;;;17.81;100.00;99064.66;3140849;28;19925;-67
2022/06/11 03:49:33;;;;;;;;;;;;;;;17.82;100.00;99058.41;3141117;28;20283;-67
2022/06/11 03:51:07;;;;;;;;;;;;;;;17.85;100.00;99068.66;3140827;28;19924;-67
2022/06/11 03:52:38;;;;;;;;;;;;;;;17.87;100.00;99066.75;3140444;28;20003;-67
2022/06/11 03:54:10;;;;;;;;;;;;;;;17.89;100.00;99077.97;3140998;28;19928;-67
2022/06/11 03:55:43;;;;;;;;;;;;;;;17.87;100.00;99068.56;3140882;28;20203;-67
2022/06/11 03:57:15;;;;;;;;;;;;;;;17.93;100.00;99075.91;3140528;28;19947;-66
2022/06/11 03:58:49;;;;;;;;;;;;;;;17.95;100.00;99081.84;3140930;28;19934;-66
2022/06/11 04:01:14;;;;;;;;;;;;;;;17.95;100.00;99081.84;3139257;28;19947;-66
2022/06/11 04:02:14;;;;;;;;;;;;;;;17.98;100.00;99089.50;3139590;28;19924;-66
2022/06/11 04:03:46;;;;;;;;;;;;;;;18.01;100.00;99085.75;3140461;28;20039;-66
2022/06/11 04:05:18;;;;;;;;;;;;;;;18.04;100.00;99088.13;3140321;28;20696;-66
2022/06/11 04:06:56;;;;;;;;;;;;;;;18.07;99.84;99085.22;3141008;28;19928;-66
2022/06/11 04:08:26;;;;;;;;;;;;;;;18.09;99.86;99088.56;3140437;28;20392;-67
2022/06/11 04:09:58;;;;;;;;;;;;;;;18.12;99.75;99078.59;3140936;28;19973;-66
2022/06/11 04:11:30;;;;;;;;;;;;;;;18.14;99.49;99086.38;3140568;28;20004;-66
2022/06/11 04:13:00;;;;;;;;;;;;;;;18.17;99.28;99091.38;3140081;28;19924;-66
2022/06/11 04:14:32;;;;;;;;;;;;;;;18.18;99.05;99079.84;3140728;28;19992;-66
2022/06/11 04:16:05;;;;;;;;;;;;;;;18.19;98.93;99084.16;3141954;28;19968;-66
2022/06/11 04:17:36;;;;;;;;;;;;;;;18.16;98.92;99069.47;3140658;28;19924;-68
2022/06/11 04:19:09;;;;;;;;;;;;;;;18.23;99.18;99079.47;3140179;28;19987;-66
2022/06/11 04:20:41;;;;;;;;;;;;;;;18.23;98.61;99090.00;3139976;28;19928;-66
2022/06/11 04:22:14;;;;;;;;;;;;;;;18.25;98.66;99093.31;3140366;28;19924;-66
2022/06/11 04:23:47;;;;;;;;;;;;;;;18.26;98.40;99101.09;3140457;28;19997;-66
2022/06/11 04:25:19;;;;;;;;;;;;;;;18.27;98.44;99097.47;3133797;28;19939;-66
2022/06/11 04:26:52;;;;;;;;;;;;;;;18.30;98.29;99105.13;3140508;28;20430;-66
2022/06/11 04:28:23;;;;;;;;;;;;;;;18.32;98.22;99115.53;3140520;28;20721;-67
2022/06/11 04:29:56;;;;;;;;;;;;;;;18.30;98.23;99107.75;3136891;28;20021;-66
2022/06/11 04:31:28;;;;;;;;;;;;;;;18.29;98.44;99108.72;3140277;28;19924;-66
2022/06/11 04:33:00;;;;;;;;;;;;;;;18.24;98.68;99108.28;3140305;28;20022;-66
2022/06/11 04:34:32;;;;;;;;;;;;;;;18.27;98.94;99109.84;3139959;28;19925;-66
2022/06/11 04:36:04;;;;;;;;;;;;;;;18.23;99.42;99111.09;3140527;28;19931;-66
2022/06/11 04:37:37;;;;;;;;;;;;;;;18.17;99.92;99120.34;3134066;28;19981;-66
2022/06/11 04:39:10;;;;;;;;;;;;;;;18.15;100.00;99128.38;3139868;28;19929;-67
2022/06/11 04:40:41;;;;;;;;;;;;;;;18.17;99.65;99125.63;3140376;28;19947;-67
2022/06/11 04:42:13;;;;;;;;;;;;;;;18.17;100.00;99131.72;3140555;28;19932;-67
2022/06/11 04:43:45;;;;;;;;;;;;;;;18.19;100.00;99121.91;3140231;28;19973;-67
2022/06/11 04:45:18;;;;;;;;;;;;;;;18.22;100.00;99123.44;3140354;28;19997;-66
2022/06/11 04:46:50;;;;;;;;;;;;;;;18.23;100.00;99117.19;3139942;28;19930;-66
2022/06/11 04:48:22;;;;;;;;;;;;;;;18.18;100.00;99111.47;3140455;28;19924;-66
2022/06/11 04:49:54;;;;;;;;;;;;;;;18.11;100.00;99108.56;3140666;28;19925;-67
2022/06/11 04:51:26;;;;;;;;;;;;;;;18.02;100.00;99109.34;3140012;28;20401;-67
2022/06/11 04:53:29;;;;;;;;;;;;;;;17.89;100.00;99101.66;3122216;28;20107;-66
2022/06/11 04:55:02;;;;;;;;;;;;;;;17.82;100.00;99105.81;3127634;28;19924;-66
2022/06/11 04:56:34;;;;;;;;;;;;;;;17.76;100.00;99108.09;3127766;28;20050;-66
2022/06/11 04:58:06;;;;;;;;;;;;;;;17.73;100.00;99107.41;3125984;28;19929;-66
2022/06/11 04:59:38;;;;;;;;;;;;;;;17.70;100.00;99101.56;3128057;28;19925;-68
2022/06/11 05:01:09;;;;;;;;;;;;;;;17.68;100.00;99098.22;3126395;28;20319;-66
2022/06/11 05:02:41;;;;;;;;;;;;;;;17.67;100.00;99102.66;3127546;28;19925;-67
2022/06/11 05:04:14;;;;;;;;;;;;;;;17.68;100.00;99103.50;3127845;28;20052;-67
2022/06/11 05:05:45;;;;;;;;;;;;;;;17.72;100.00;99118.91;3127968;28;19932;-67
2022/06/11 05:07:17;;;;;;;;;;;;;;;17.77;100.00;99125.56;3127533;28;19929;-67
2022/06/11 05:08:49;;;;;;;;;;;;;;;17.77;100.00;99134.28;3127259;28;19924;-67
2022/06/11 05:10:22;;;;;;;;;;;;;;;17.76;100.00;99135.28;3128002;28;20379;-66
2022/06/11 05:11:54;;;;;;;;;;;;;;;17.76;100.00;99143.19;3127608;28;20337;-66
2022/06/11 05:13:26;;;;;;;;;;;;;;;17.74;99.35;99145.09;3127625;28;20377;-66
2022/06/11 05:14:57;;;;;;;;;;;;;;;17.69;98.37;99147.31;3127814;28;19935;-66
2022/06/11 05:16:29;;;;;;;;;;;;;;;17.67;97.58;99147.44;3128888;28;19924;-66
2022/06/11 05:18:01;;;;;;;;;;;;;;;17.65;97.06;99148.50;3127826;28;19925;-66
2022/06/11 05:19:33;;;;;;;;;;;;;;;17.63;96.29;99138.13;3127626;28;19928;-66
2022/06/11 05:21:05;;;;;;;;;;;;;;;17.56;95.96;99136.97;3127456;28;19986;-66
2022/06/11 05:22:36;;;;;;;;;;;;;;;17.59;95.68;99141.13;3121662;28;20578;-66
2022/06/11 05:24:08;;;;;;;;;;;;;;;17.58;95.24;99150.84;3127833;28;19936;-66
2022/06/11 05:25:42;;;;;;;;;;;;;;;17.61;95.55;99140.03;3127559;28;19936;-66
2022/06/11 05:27:16;;;;;;;;;;;;;;;17.64;95.36;99146.84;3127865;28;19928;-66
2022/06/11 05:28:48;;;;;;;;;;;;;;;17.66;95.17;99147.56;3127471;28;19948;-66
2022/06/11 05:30:22;;;;;;;;;;;;;;;17.68;94.93;99151.72;3127784;28;20027;-66
2022/06/11 05:31:53;;;;;;;;;;;;;;;17.66;94.94;99161.56;3129502;28;20370;-66
2022/06/11 05:33:26;;;;;;;;;;;;;;;17.70;95.05;99164.75;3130224;28;19925;-66
2022/06/11 05:34:58;;;;;;;;;;;;;;;17.73;94.92;99164.50;3130078;28;20388;-66
2022/06/11 05:36:29;;;;;;;;;;;;;;;17.75;94.75;99165.22;3130299;28;19924;-66
2022/06/11 05:38:03;;;;;;;;;;;;;;;17.79;94.36;99174.53;3131608;28;19940;-66
2022/06/11 05:39:35;;;;;;;;;;;;;;;17.80;94.09;99172.75;3130191;28;19924;-65
2022/06/11 05:41:08;;;;;;;;;;;;;;;17.81;93.79;99175.25;3129455;28;20385;-66
2022/06/11 05:42:39;;;;;;;;;;;;;;;17.82;93.43;99176.09;3129343;28;19977;-64
2022/06/11 05:44:10;;;;;;;;;;;;;;;17.82;93.26;99181.34;3129782;28;20075;-63
2022/06/11 05:45:45;;;;;;;;;;;;;;;17.82;93.08;99182.19;3130297;28;19935;-65
2022/06/11 05:47:19;;;;;;;;;;;;;;;17.84;93.16;99180.25;3129876;28;20425;-64
2022/06/11 05:48:53;;;;;;;;;;;;;;;17.86;93.23;99188.84;3126626;28;19924;-64
2022/06/11 05:50:27;;;;;;;;;;;;;;;17.89;93.27;99193.84;3125127;28;20437;-65
2022/06/11 05:52:02;;;;;;;;;;;;;;;17.88;93.35;99188.72;3130154;28;19931;-65
2022/06/11 05:53:34;;;;;;;;;;;;;;;17.91;93.16;99199.00;3129952;28;20682;-64
2022/06/11 05:55:07;;;;;;;;;;;;;;;17.94;93.05;99204.00;3129600;28;19928;-66
2022/06/11 05:56:40;;;;;;;;;;;;;;;17.95;92.91;99203.91;3130124;28;19924;-65
2022/06/11 05:58:15;;;;;;;;;;;;;;;17.93;92.30;99208.44;3129887;28;19974;-66
2022/06/11 05:59:49;;;;;;;;;;;;;;;17.95;92.30;99206.53;3130015;28;19925;-64
2022/06/11 06:01:23;;;;;;;;;;;;;;;17.96;92.20;99205.56;3128887;28;19924;-65
2022/06/11 06:02:57;;;;;;;;;;;;;;;17.98;92.39;99202.78;3125209;28;19929;-66
2022/06/11 06:04:29;;;;;;;;;;;;;;;18.00;92.31;99206.13;3131291;28;19931;-66
2022/06/11 06:06:01;;;;;;;;;;;;;;;18.00;91.92;99213.19;3129864;28;19925;-66
2022/06/11 06:07:32;;;;;;;;;;;;;;;18.00;91.60;99210.56;3129522;28;19935;-65
2022/06/11 06:09:05;;;;;;;;;;;;;;;18.00;91.95;99208.75;3129812;28;19924;-64
2022/06/11 06:10:37;;;;;;;;;;;;;;;18.02;92.25;99213.91;3129655;28;20382;-65
2022/06/11 06:12:10;;;;;;;;;;;;;;;18.05;91.96;99211.00;3129864;28;19928;-64
2022/06/11 06:13:47;;;;;;;;;;;;;;;18.04;91.60;99210.16;3129792;28;20035;-63
2022/06/11 06:15:20;;;;;;;;;;;;;;;18.06;91.77;99215.31;3129816;28;19936;-64
2022/06/11 06:16:52;;;;;;;;;;;;;;;18.08;91.50;99216.00;3131267;28;20022;-63
2022/06/11 06:18:23;;;;;;;;;;;;;;;18.12;91.48;99212.16;3129899;28;19925;-65
2022/06/11 06:19:55;;;;;;;;;;;;;;;18.15;91.59;99220.63;3129612;28;19994;-65
2022/06/11 06:21:27;;;;;;;;;;;;;;;18.17;91.54;99218.69;3129336;28;19924;-64
2022/06/11 06:22:59;;;;;;;;;;;;;;;18.20;91.98;99214.97;3128897;28;19982;-64
2022/06/11 06:24:31;;;;;;;;;;;;;;;18.20;92.07;99214.97;3129090;28;20375;-64
2022/06/11 06:26:03;;;;;;;;;;;;;;;18.19;92.80;99219.41;3129604;28;19924;-63
2022/06/11 06:27:36;;;;;;;;;;;;;;;18.19;93.11;99216.75;3129697;28;19925;-63
2022/06/11 06:29:08;;;;;;;;;;;;;;;18.21;93.78;99213.97;3129070;28;19932;-64
2022/06/11 06:30:40;;;;;;;;;;;;;;;18.24;93.94;99213.72;3129379;28;20491;-64
2022/06/11 06:32:11;;;;;;;;;;;;;;;18.30;94.29;99213.19;3129330;28;20007;-65
2022/06/11 06:33:43;;;;;;;;;;;;;;;18.32;94.44;99216.53;3127600;28;19978;-64
2022/06/11 06:35:15;;;;;;;;;;;;;;;18.33;94.59;99214.72;3129123;28;19924;-65
2022/06/11 06:36:47;;;;;;;;;;;;;;;18.37;94.79;99216.16;3128854;28;19924;-64
2022/06/11 06:38:17;;;;;;;;;;;;;;;18.41;94.60;99213.09;3127970;28;19998;-65
2022/06/11 06:39:49;;;;;;;;;;;;;;;18.49;94.29;99212.44;3128168;28;20017;-63
2022/06/11 06:41:21;;;;;;;;;;;;;;;18.55;94.47;99205.78;3128377;28;20265;-63
2022/06/11 06:42:54;;;;;;;;;;;;;;;18.63;94.03;99201.53;3127185;28;19934;-63
2022/06/11 06:44:26;;;;;;;;;;;;;;;18.76;94.16;99205.75;3128661;28;19924;-63
2022/06/11 06:45:57;;;;;;;;;;;;;;;18.84;94.27;99196.19;3128566;28;20004;-65
2022/06/11 06:47:29;;;;;;;;;;;;;;;18.91;94.27;99190.34;3127962;28;19929;-63
2022/06/11 06:49:01;;;;;;;;;;;;;;;19.06;94.17;99202.16;3128000;28;19986;-66
2022/06/11 06:50:33;;;;;;;;;;;;;;;19.17;94.21;99201.22;3128219;28;20393;-65
2022/06/11 06:52:05;;;;;;;;;;;;;;;19.27;94.03;99202.03;3127747;28;19935;-66
2022/06/11 06:53:37;;;;;;;;;;;;;;;19.37;93.63;99192.28;3126218;28;19925;-62
2022/06/11 06:55:09;;;;;;;;;;;;;;;19.47;93.84;99194.94;3129210;28;19925;-63
2022/06/11 06:56:40;;;;;;;;;;;;;;;19.52;93.00;99200.59;3128893;28;19931;-64
2022/06/11 06:58:14;;;;;;;;;;;;;;;19.54;92.01;99199.50;3129372;28;19932;-64
2022/06/11 06:59:46;;;;;;;;;;;;;;;19.57;91.63;99197.56;3129142;28;19925;-66
2022/06/11 07:01:18;;;;;;;;;;;;;;;19.58;91.18;99200.06;3122856;28;20031;-65
2022/06/11 07:02:49;;;;;;;;;;;;;;;19.59;90.19;99206.19;3128909;28;19928;-65
2022/06/11 07:04:21;;;;;;;;;;;;;;;19.54;89.06;99204.78;3128877;28;19929;-62
2022/06/11 07:05:52;;;;;;;;;;;;;;;19.52;88.12;99201.47;3128829;28;19955;-62
2022/06/11 07:07:24;;;;;;;;;;;;;;;19.51;87.99;99198.94;3129190;28;19998;-63
2022/06/11 07:08:56;;;;;;;;;;;;;;;19.45;87.71;99202.97;3129692;28;19959;-63
2022/06/11 07:10:27;;;;;;;;;;;;;;;19.42;87.47;99200.63;3129537;28;19928;-62
2022/06/11 07:11:59;;;;;;;;;;;;;;;19.39;87.11;99206.19;3128803;28;19935;-64
2022/06/11 07:13:32;;;;;;;;;;;;;;;19.36;87.42;99210.91;3128790;28;19982;-63
2022/06/11 07:15:04;;;;;;;;;;;;;;;19.33;87.01;99212.03;3128763;28;20430;-64
2022/06/11 07:16:38;;;;;;;;;;;;;;;19.33;87.28;99209.38;3130332;28;20344;-65
2022/06/11 07:18:14;;;;;;;;;;;;;;;19.33;87.34;99215.50;3128656;28;19925;-65
2022/06/11 07:19:49;;;;;;;;;;;;;;;19.32;87.32;99205.09;3129122;28;19931;-64
2022/06/11 07:21:21;;;;;;;;;;;;;;;19.25;86.58;99210.06;3128588;28;19924;-65
2022/06/11 07:22:56;;;;;;;;;;;;;;;19.30;87.40;99207.84;3128718;28;19924;-65
2022/06/11 07:24:32;;;;;;;;;;;;;;;19.35;87.59;99207.44;3128944;28;19924;-65
2022/06/11 07:26:08;;;;;;;;;;;;;;;19.37;87.52;99216.03;3128604;28;19986;-65
2022/06/11 07:27:41;;;;;;;;;;;;;;;19.38;87.48;99219.53;3129166;28;19929;-65
2022/06/11 07:29:17;;;;;;;;;;;;;;;19.39;87.52;99223.84;3128956;28;20677;-65
2022/06/11 07:30:49;;;;;;;;;;;;;;;19.36;87.15;99221.47;3129266;28;19924;-65
2022/06/11 07:32:21;;;;;;;;;;;;;;;19.31;86.62;99221.88;3129240;28;19925;-65
2022/06/11 07:33:52;;;;;;;;;;;;;;;19.30;86.80;99228.97;3128426;28;20299;-65
2022/06/11 07:35:25;;;;;;;;;;;;;;;19.27;86.67;99226.63;3128702;28;19994;-65
2022/06/11 07:36:57;;;;;;;;;;;;;;;19.26;86.94;99224.97;3129026;28;19925;-65
2022/06/11 07:38:29;;;;;;;;;;;;;;;19.24;86.60;99226.06;3128542;28;19931;-65
2022/06/11 07:40:00;;;;;;;;;;;;;;;19.20;86.57;99228.16;3128732;28;20015;-66
2022/06/11 07:41:32;;;;;;;;;;;;;;;19.19;87.03;99226.47;3128481;28;19925;-64
2022/06/11 07:43:06;;;;;;;;;;;;;;;19.16;86.53;99231.19;3124516;28;19931;-63
2022/06/11 07:44:40;;;;;;;;;;;;;;;19.14;86.73;99226.06;3125053;28;19979;-65
2022/06/11 07:46:11;;;;;;;;;;;;;;;19.14;87.46;99230.47;3123663;28;19924;-67
2022/06/11 07:47:54;;;;;;;;;;;;;;;19.06;87.38;99225.91;3124122;28;20327;-67
2022/06/11 07:49:26;;;;;;;;;;;;;;;19.05;88.99;99225.09;3119872;28;19932;-67
2022/06/11 07:51:01;;;;;;;;;;;;;;;19.05;89.45;99216.34;3124549;28;20465;-66
2022/06/11 07:52:32;;;;;;;;;;;;;;;19.10;89.07;99227.28;3124876;28;19925;-66
2022/06/11 07:54:04;;;;;;;;;;;;;;;19.14;88.89;99223.44;3124155;28;19925;-66
2022/06/11 07:55:37;;;;;;;;;;;;;;;19.17;88.82;99217.88;3122888;28;19973;-65
2022/06/11 07:57:10;;;;;;;;;;;;;;;19.18;88.93;99216.06;3123627;28;19925;-65
2022/06/11 07:58:42;;;;;;;;;;;;;;;19.21;88.87;99213.13;3123641;28;19924;-69
2022/06/11 08:00:17;;;;;;;;;;;;;;;19.23;89.13;99219.13;3123461;28;19975;-68
2022/06/11 08:01:49;;;;;;;;;;;;;;;19.24;88.92;99215.50;3121550;28;20010;-69
2022/06/11 08:03:21;;;;;;;;;;;;;;;19.23;88.71;99217.31;3123945;28;19924;-66
2022/06/11 08:04:53;;;;;;;;;;;;;;;19.24;88.81;99211.06;3123458;28;19924;-66
2022/06/11 08:06:25;;;;;;;;;;;;;;;19.25;88.59;99217.97;3123426;28;19982;-67